This is the latest recevied weather packets stored in our database for station/object KF6ILA. If no packets are shown the sender has not sent any weather packets the latest 10 day(s).
| Time | Temp. | Humidity | Pressure | Rain* | Wind** | Luminosity | Snow |
|---|---|---|---|---|---|---|---|
| 1787864058 | 32.78° C | 36% | 1017.1 hPa | 0 mm | - | 473 W/m² | - |
| 1787863761 | 32.78° C | 35% | 1017.3 hPa | 0 mm | - | 434 W/m² | - |
| 1787863464 | 33.33° C | 35% | 1017.4 hPa | 0 mm | - | 508 W/m² | - |
| 1787863167 | 33.33° C | 33% | 1017.5 hPa | 0 mm | - | 476 W/m² | - |
| 1787862278 | 33.33° C | 34% | 1017.7 hPa | 0 mm | - | 411 W/m² | - |
| 1787861682 | 33.33° C | 35% | 1017.6 hPa | 0 mm | - | 417 W/m² | - |
| 1787861088 | 33.33° C | 34% | 1017.6 hPa | 0 mm | - | 475 W/m² | - |
| 1787860197 | 33.33° C | 35% | 1017.8 hPa | 0 mm | - | 919 W/m² | - |
| 1787858118 | 35° C | 28% | 1018.1 hPa | 0 mm | - | 302 W/m² | - |
| 1787857524 | 35.56° C | 27% | 1018.2 hPa | 0 mm | - | 939 W/m² | - |
| 1787857227 | 36.11° C | 26% | 1018.2 hPa | 0 mm | - | 870 W/m² | - |
| 1787856633 | 37.78° C | 23% | 1018.3 hPa | 0 mm | - | 928 W/m² | - |
| 1787856336 | 37.78° C | 24% | 1018.2 hPa | 0 mm | - | 1053 W/m² | - |
| 1787856039 | 37.22° C | 24% | 1018.1 hPa | 0 mm | - | 795 W/m² | - |
| 1787855742 | 36.67° C | 24% | 1018.2 hPa | 0 mm | - | 694 W/m² | - |
| 1787854554 | 36.67° C | 24% | 1018.4 hPa | 0 mm | - | 710 W/m² | - |
| 1787854257 | 36.11° C | 25% | 1018.4 hPa | 0 mm | - | 944 W/m² | - |
| 1787853960 | 36.11° C | 25% | 1018.5 hPa | 0 mm | - | 837 W/m² | - |
| 1787853663 | 36.11° C | 25% | 1018.4 hPa | 0 mm | - | 468 W/m² | - |
| 1787853366 | 35.56° C | 25% | 1018.4 hPa | 0 mm | - | 687 W/m² | - |
| 1787852772 | 33.33° C | 29% | 1018.2 hPa | 0 mm | - | 912 W/m² | - |
| 1787852178 | 32.22° C | 29% | 1018.4 hPa | 0 mm | - | 559 W/m² | - |
| 1787851881 | 31.67° C | 29% | 1018.5 hPa | 0 mm | - | 666 W/m² | - |
| 1787851287 | 31.67° C | 30% | 1018.3 hPa | 0 mm | - | 271 W/m² | - |
| 1787850990 | 32.22° C | 30% | 1018.4 hPa | 0 mm | - | 287 W/m² | - |
* Rain latest hour (hover to see other rain measurements)
** Current wind speed in m/s (hover to see current wind gust speed)